Time;durP1;ratioP1;P1;durP2;ratioP2;P2;SDS_P1;SDS_P2;PMS_P1;PMS_P2;Temp;Humidity;BMP_temperature;BMP_pressure;BME280_temperature;BME280_humidity;BME280_pressure;Samples;Min_cycle;Max_cycle;Signal;HPM_P1;HPM_P2
2023/01/28 00:02:00;;;;;;;0.30;0.30;;;10.10;56.60;;;;;;5053677;28;20025;-84
2023/01/28 00:04:25;;;;;;;0.25;0.25;;;10.00;57.10;;;;;;5053916;28;20429;-85
2023/01/28 00:06:52;;;;;;;0.30;0.30;;;9.90;57.40;;;;;;5053695;28;20048;-87
2023/01/28 00:09:20;;;;;;;0.30;0.30;;;10.10;56.90;;;;;;5053567;28;20100;-85
2023/01/28 00:11:45;;;;;;;0.32;0.32;;;10.30;56.50;;;;;;5053472;28;20021;-85
2023/01/28 00:14:11;;;;;;;0.40;0.40;;;10.50;56.30;;;;;;5053362;28;20066;-85
2023/01/28 00:16:37;;;;;;;0.30;0.30;;;10.70;55.80;;;;;;5054223;28;20420;-85
2023/01/28 00:19:03;;;;;;;0.40;0.40;;;10.50;56.00;;;;;;5053307;28;20017;-88
2023/01/28 00:21:29;;;;;;;0.30;0.30;;;10.40;56.40;;;;;;5053921;28;20032;-85
2023/01/28 00:23:58;;;;;;;0.40;0.40;;;10.20;56.60;;;;;;5053604;28;20025;-84
2023/01/28 00:26:25;;;;;;;0.30;0.30;;;10.30;56.60;;;;;;5048874;28;20029;-85
2023/01/28 00:28:50;;;;;;;0.20;0.20;;;10.30;56.10;;;;;;5033378;28;20038;-86
2023/01/28 00:31:28;;;;;;;0.30;0.30;;;10.30;56.60;;;;;;5033667;28;20071;-85
2023/01/28 00:34:42;;;;;;;0.30;0.30;;;10.30;56.10;;;;;;5085581;27;1425664;-85
2023/01/28 00:37:08;;;;;;;0.30;0.30;;;10.00;57.10;;;;;;5093541;28;20032;-85
2023/01/28 00:39:38;;;;;;;0.30;0.30;;;9.80;57.20;;;;;;5094583;28;20040;-86
2023/01/28 00:42:04;;;;;;;0.30;0.30;;;10.00;57.50;;;;;;5073592;28;20028;-85
2023/01/28 00:44:30;;;;;;;0.25;0.25;;;10.10;57.00;;;;;;5091115;28;20055;-85
2023/01/28 00:46:56;;;;;;;0.30;0.30;;;10.30;56.70;;;;;;5090773;28;20029;-86
2023/01/28 00:49:21;;;;;;;0.25;0.25;;;10.50;56.50;;;;;;5073293;28;20020;-87
2023/01/28 00:51:47;;;;;;;0.30;0.30;;;10.60;56.00;;;;;;5073034;28;20022;-86
2023/01/28 00:54:13;;;;;;;0.30;0.30;;;10.50;55.60;;;;;;5072860;28;20479;-85
2023/01/28 00:56:39;;;;;;;0.30;0.30;;;10.50;56.20;;;;;;5072895;28;20028;-86
2023/01/28 00:59:05;;;;;;;0.20;0.20;;;10.50;56.00;;;;;;5090965;28;20024;-85
2023/01/28 01:01:30;;;;;;;0.30;0.30;;;10.70;56.00;;;;;;5073164;28;20055;-84
2023/01/28 01:04:01;;;;;;;0.28;0.28;;;10.70;55.80;;;;;;5073023;28;20117;-87
2023/01/28 01:06:32;;;;;;;0.30;0.30;;;10.60;56.10;;;;;;5052891;28;20024;-87
2023/01/28 01:08:57;;;;;;;0.30;0.30;;;10.70;55.80;;;;;;5052998;28;20094;-86
2023/01/28 01:11:31;;;;;;;0.30;0.30;;;10.60;55.80;;;;;;5057935;28;20108;-86
2023/01/28 01:13:59;;;;;;;0.28;0.28;;;10.50;56.20;;;;;;5091100;28;20386;-87
2023/01/28 01:16:31;;;;;;;0.30;0.30;;;10.60;55.80;;;;;;5091174;28;20554;-86
2023/01/28 01:18:56;;;;;;;0.30;0.30;;;10.40;55.70;;;;;;5072512;28;20103;-88
2023/01/28 01:21:25;;;;;;;0.30;0.30;;;10.20;56.30;;;;;;5091120;28;20104;-86
2023/01/28 01:23:51;;;;;;;0.32;0.32;;;10.20;56.10;;;;;;5072050;28;20387;-85
2023/01/28 01:26:17;;;;;;;0.30;0.30;;;10.00;57.00;;;;;;5091242;28;20024;-85
2023/01/28 01:28:44;;;;;;;0.30;0.30;;;10.10;57.10;;;;;;5073232;28;20020;-86
2023/01/28 01:31:13;;;;;;;0.20;0.20;;;10.30;56.90;;;;;;5072244;28;20024;-85
2023/01/28 01:33:44;;;;;;;0.30;0.30;;;10.40;56.00;;;;;;5072474;28;20395;-84
2023/01/28 01:36:11;;;;;;;0.30;0.30;;;10.20;56.60;;;;;;5072179;28;20031;-87
2023/01/28 01:38:37;;;;;;;0.40;0.40;;;10.10;56.90;;;;;;5090784;28;20020;-85
2023/01/28 01:41:04;;;;;;;0.30;0.30;;;10.30;56.70;;;;;;5090440;28;20099;-85
2023/01/28 01:44:04;;;;;;;0.20;0.20;;;10.60;55.70;;;;;;5079234;27;1392350;-86
2023/01/28 01:46:44;;;;;;;0.30;0.30;;;10.50;56.30;;;;;;5112267;28;20390;-85
2023/01/28 01:49:21;;;;;;;0.45;0.45;;;10.60;56.00;;;;;;5093581;28;20097;-85
2023/01/28 01:51:50;;;;;;;0.30;0.30;;;10.50;56.20;;;;;;5112145;28;20071;-85
2023/01/28 01:54:18;;;;;;;0.30;0.30;;;10.40;56.50;;;;;;5094239;28;20077;-86
2023/01/28 01:58:49;;;;;;;0.30;0.30;;;10.60;55.80;;;;;;5079320;27;1555830;-87
2023/01/28 02:01:16;;;;;;;0.30;0.30;;;10.60;56.00;;;;;;5094576;28;20024;-88
2023/01/28 02:03:54;;;;;;;0.40;0.40;;;10.70;55.80;;;;;;5093946;28;20028;-87
2023/01/28 02:06:21;;;;;;;0.30;0.30;;;10.70;55.40;;;;;;5111981;28;20040;-85
2023/01/28 02:08:48;;;;;;;0.22;0.22;;;10.70;55.70;;;;;;5077431;28;20025;-86
2023/01/28 02:11:15;;;;;;;0.20;0.20;;;10.70;55.70;;;;;;5073560;28;20032;-87
2023/01/28 02:13:44;;;;;;;0.30;0.30;;;10.70;55.70;;;;;;5091358;28;20031;-86
2023/01/28 02:16:11;;;;;;;0.30;0.30;;;10.80;55.60;;;;;;5073422;28;20021;-86
2023/01/28 02:18:37;;;;;;;0.40;0.40;;;10.60;55.80;;;;;;5090892;28;20040;-86
2023/01/28 02:21:36;;;;;;;0.25;0.25;;;10.60;55.80;;;;;;5091560;28;20512;-85
2023/01/28 02:24:39;;;;;;;0.28;0.28;;;10.60;55.40;;;;;;5073394;28;20081;-85
2023/01/28 02:27:26;;;;;;;0.28;0.28;;;10.60;55.80;;;;;;5090962;28;20028;-88
2023/01/28 02:29:54;;;;;;;0.30;0.30;;;10.50;56.00;;;;;;5090898;28;20024;-88
2023/01/28 02:32:33;;;;;;;0.35;0.35;;;10.50;55.90;;;;;;5091227;28;20410;-85
2023/01/28 02:35:09;;;;;;;0.30;0.30;;;10.60;56.10;;;;;;5072512;28;20554;-86
2023/01/28 02:38:10;;;;;;;0.30;0.30;;;10.30;56.70;;;;;;5092522;28;20123;-85
2023/01/28 02:41:02;;;;;;;0.30;0.30;;;10.00;56.70;;;;;;5065479;28;20046;-86
2023/01/28 02:43:44;;;;;;;0.30;0.30;;;10.00;56.70;;;;;;5090230;28;20032;-86
2023/01/28 02:48:54;;;;;;;0.30;0.30;;;10.10;56.60;;;;;;5090246;28;20036;-86
2023/01/28 02:51:42;;;;;;;0.30;0.30;;;10.20;56.60;;;;;;5072776;28;20386;-88
2023/01/28 02:54:19;;;;;;;0.40;0.40;;;10.00;56.50;;;;;;5072712;28;20050;-85
2023/01/28 02:56:52;;;;;;;0.30;0.30;;;9.80;57.00;;;;;;5053161;28;20108;-85
2023/01/28 02:59:35;;;;;;;0.20;0.20;;;10.00;56.80;;;;;;5052517;28;20134;-85
2023/01/28 03:02:07;;;;;;;0.30;0.30;;;9.90;56.30;;;;;;5052333;28;20480;-85
2023/01/28 03:04:48;;;;;;;0.30;0.30;;;9.90;57.10;;;;;;5074921;28;20052;-85
2023/01/28 03:07:16;;;;;;;0.28;0.28;;;10.20;56.20;;;;;;5072043;28;20028;-88
2023/01/28 03:09:46;;;;;;;0.30;0.30;;;9.90;56.70;;;;;;5061104;28;20020;-85
2023/01/28 03:38:32;;;;;;;0.30;0.30;;;10.00;56.30;;;;;;5076195;28;20048;-85
2023/01/28 03:41:01;;;;;;;0.32;0.32;;;9.40;57.00;;;;;;5074896;28;20105;-85
2023/01/28 03:43:28;;;;;;;0.30;0.30;;;9.50;57.40;;;;;;5076061;28;20021;-86
2023/01/28 03:45:54;;;;;;;0.30;0.30;;;9.80;57.10;;;;;;5058324;28;20033;-87
2023/01/28 03:48:27;;;;;;;0.20;0.20;;;10.10;56.30;;;;;;5048119;28;20426;-85
2023/01/28 03:51:00;;;;;;;0.30;0.30;;;10.30;56.10;;;;;;5038418;28;20119;-85
2023/01/28 03:53:27;;;;;;;0.25;0.25;;;10.20;56.10;;;;;;5038500;28;20033;-85
2023/01/28 03:56:00;;;;;;;0.30;0.30;;;10.30;56.00;;;;;;5038633;28;20123;-85
2023/01/28 03:58:45;;;;;;;0.30;0.30;;;10.40;55.80;;;;;;5047906;28;20052;-86
2023/01/28 04:01:11;;;;;;;0.22;0.22;;;10.40;56.60;;;;;;5058314;28;20033;-85
2023/01/28 04:04:00;;;;;;;0.30;0.30;;;10.30;56.10;;;;;;5057727;28;20025;-85
2023/01/28 04:06:27;;;;;;;0.28;0.28;;;10.60;55.80;;;;;;5057622;28;20123;-85
2023/01/28 04:08:55;;;;;;;0.30;0.30;;;10.70;55.50;;;;;;5057840;28;20039;-85
2023/01/28 04:11:24;;;;;;;0.30;0.30;;;10.80;55.30;;;;;;5057830;28;20035;-86
2023/01/28 04:13:50;;;;;;;0.30;0.30;;;10.60;55.80;;;;;;5075480;28;20017;-87
2023/01/28 04:16:17;;;;;;;0.30;0.30;;;10.60;55.40;;;;;;5057849;28;20082;-85
2023/01/28 04:18:47;;;;;;;0.30;0.30;;;10.20;56.20;;;;;;5057480;28;20078;-89
2023/01/28 04:21:13;;;;;;;0.30;0.30;;;9.80;57.20;;;;;;5056951;28;20074;-84
2023/01/28 04:23:39;;;;;;;0.30;0.30;;;9.90;57.50;;;;;;5057272;28;20029;-85
2023/01/28 04:26:04;;;;;;;0.30;0.30;;;10.10;56.90;;;;;;5075426;28;20585;-88
2023/01/28 04:28:30;;;;;;;0.30;0.30;;;10.30;56.30;;;;;;5054355;28;20029;-85
2023/01/28 04:30:56;;;;;;;0.30;0.30;;;10.40;56.10;;;;;;5075319;28;20060;-85
2023/01/28 04:33:22;;;;;;;0.30;0.30;;;10.50;55.90;;;;;;5057302;28;20035;-85
2023/01/28 04:35:47;;;;;;;0.30;0.30;;;10.60;55.90;;;;;;5057286;28;20016;-86
2023/01/28 04:38:13;;;;;;;0.30;0.30;;;10.70;55.50;;;;;;5075034;28;20059;-85
2023/01/28 04:40:39;;;;;;;0.30;0.30;;;10.70;55.20;;;;;;5056363;28;20021;-84
2023/01/28 04:43:04;;;;;;;0.30;0.30;;;10.70;55.30;;;;;;5037613;28;20398;-85
2023/01/28 04:45:30;;;;;;;0.22;0.22;;;10.50;55.60;;;;;;5054899;28;20096;-85
2023/01/28 04:47:56;;;;;;;0.30;0.30;;;10.50;55.80;;;;;;5037125;28;20057;-85
2023/01/28 04:50:22;;;;;;;0.30;0.30;;;10.60;55.90;;;;;;5062042;28;20023;-87
2023/01/28 04:52:47;;;;;;;0.30;0.30;;;10.60;55.40;;;;;;5056934;28;20063;-86
2023/01/28 04:55:13;;;;;;;0.30;0.30;;;10.50;55.70;;;;;;5057056;28;20027;-85
2023/01/28 04:57:39;;;;;;;0.30;0.30;;;10.30;56.70;;;;;;5056683;28;20143;-85
2023/01/28 05:01:49;;;;;;;0.30;0.30;;;10.40;56.10;;;;;;5083967;27;1399518;-86
2023/01/28 05:04:16;;;;;;;0.25;0.25;;;10.10;56.70;;;;;;5083914;28;20036;-86
2023/01/28 05:06:42;;;;;;;0.30;0.30;;;10.00;57.20;;;;;;5092420;28;20017;-85
2023/01/28 05:09:07;;;;;;;0.40;0.40;;;9.90;57.50;;;;;;5073458;28;20024;-87
2023/01/28 05:11:33;;;;;;;0.20;0.20;;;10.00;57.50;;;;;;5072863;28;20382;-87
2023/01/28 05:13:59;;;;;;;0.30;0.30;;;10.00;57.70;;;;;;5090051;28;20028;-85
2023/01/28 05:16:24;;;;;;;0.30;0.30;;;10.00;56.80;;;;;;5090266;28;20020;-85
2023/01/28 05:18:50;;;;;;;0.30;0.30;;;9.70;57.80;;;;;;5089397;28;20031;-90
2023/01/28 05:21:17;;;;;;;0.35;0.35;;;9.90;58.00;;;;;;5072652;28;20206;-87
2023/01/28 05:23:43;;;;;;;0.40;0.40;;;10.00;57.30;;;;;;5073123;28;20034;-86
2023/01/28 05:26:09;;;;;;;0.25;0.25;;;10.30;57.30;;;;;;5073145;28;20089;-87
2023/01/28 05:28:35;;;;;;;0.28;0.28;;;10.40;56.70;;;;;;5078369;28;20021;-87
2023/01/28 05:31:07;;;;;;;0.38;0.38;;;10.30;56.50;;;;;;5053079;28;20467;-86
2023/01/28 05:33:33;;;;;;;0.30;0.30;;;10.10;56.70;;;;;;5070481;28;20107;-86
2023/01/28 05:35:58;;;;;;;0.28;0.28;;;9.80;57.40;;;;;;5070716;28;20059;-86
2023/01/28 05:38:24;;;;;;;0.30;0.30;;;9.80;58.00;;;;;;5070594;28;20155;-87
2023/01/28 05:40:50;;;;;;;0.28;0.28;;;9.60;58.20;;;;;;5068542;28;20127;-86
2023/01/28 05:43:15;;;;;;;0.32;0.32;;;9.40;58.60;;;;;;5073153;28;20024;-85
2023/01/28 05:45:41;;;;;;;0.30;0.30;;;9.40;58.30;;;;;;5090786;28;20024;-86
2023/01/28 05:48:07;;;;;;;0.40;0.40;;;9.20;58.70;;;;;;5072607;28;20199;-85
2023/01/28 05:50:33;;;;;;;0.30;0.30;;;9.10;59.50;;;;;;5078814;28;20036;-87
2023/01/28 05:52:58;;;;;;;0.30;0.30;;;9.10;59.50;;;;;;5053210;28;20471;-85
2023/01/28 05:55:24;;;;;;;0.30;0.30;;;9.30;59.10;;;;;;5052391;28;20178;-86
2023/01/28 05:57:50;;;;;;;0.20;0.20;;;9.20;58.70;;;;;;5062866;28;20047;-86
2023/01/28 06:00:16;;;;;;;0.30;0.30;;;9.00;59.40;;;;;;5089095;28;20139;-86
2023/01/28 06:02:42;;;;;;;0.30;0.30;;;9.20;59.20;;;;;;5071986;28;20034;-86
2023/01/28 06:05:09;;;;;;;0.30;0.30;;;9.40;58.80;;;;;;5088995;28;20119;-87
2023/01/28 06:07:34;;;;;;;0.30;0.30;;;9.30;58.90;;;;;;5072735;28;20016;-86
2023/01/28 06:10:00;;;;;;;0.30;0.30;;;9.30;59.20;;;;;;5057751;28;20047;-85
2023/01/28 06:12:26;;;;;;;0.40;0.40;;;9.40;59.00;;;;;;5043553;28;20029;-85
2023/01/28 06:14:52;;;;;;;0.30;0.30;;;9.60;58.20;;;;;;5058406;28;20383;-86
2023/01/28 06:17:17;;;;;;;0.30;0.30;;;9.40;58.40;;;;;;5056131;28;20056;-86
2023/01/28 06:19:43;;;;;;;0.30;0.30;;;9.10;59.30;;;;;;5039222;28;20025;-88
2023/01/28 06:22:09;;;;;;;0.30;0.30;;;9.20;59.30;;;;;;5044087;28;20507;-86
2023/01/28 06:24:54;;;;;;;0.20;0.20;;;9.40;58.70;;;;;;5079864;27;1594622;-85
2023/01/28 06:27:22;;;;;;;0.30;0.30;;;9.70;58.50;;;;;;5090161;28;20375;-85
2023/01/28 06:29:47;;;;;;;0.30;0.30;;;9.70;58.00;;;;;;5073622;28;20124;-87
2023/01/28 06:32:13;;;;;;;0.30;0.30;;;9.90;57.90;;;;;;5073384;28;20115;-86
2023/01/28 06:34:39;;;;;;;0.30;0.30;;;10.00;57.50;;;;;;5073019;28;20471;-83
2023/01/28 06:37:11;;;;;;;0.30;0.30;;;10.00;57.80;;;;;;5084926;28;20077;-84
2023/01/28 06:39:36;;;;;;;0.30;0.30;;;10.10;57.00;;;;;;5073205;28;20032;-84
2023/01/28 06:42:12;;;;;;;0.30;0.30;;;9.80;57.70;;;;;;4721936;28;9999857;-86
2023/01/28 06:44:39;;;;;;;0.30;0.30;;;9.80;58.20;;;;;;5087184;28;20048;-85
2023/01/28 06:47:27;;;;;;;0.30;0.30;;;9.90;58.40;;;;;;5053231;28;20480;-85
2023/01/28 06:51:00;;;;;;;0.30;0.30;;;10.00;57.60;;;;;;4991842;28;22348;-86
2023/01/28 06:53:52;;;;;;;0.30;0.30;;;10.40;56.90;;;;;;4992628;28;20065;-86
2023/01/28 06:56:44;;;;;;;0.30;0.30;;;10.40;56.90;;;;;;4937172;29;20094;-87
2023/01/28 06:59:10;;;;;;;0.30;0.30;;;10.40;56.50;;;;;;4952496;28;20046;-85
2023/01/28 07:01:36;;;;;;;0.30;0.30;;;10.50;56.70;;;;;;4969480;28;20035;-86
2023/01/28 07:04:02;;;;;;;0.30;0.30;;;10.70;56.70;;;;;;4969295;28;20086;-86
2023/01/28 07:06:28;;;;;;;0.30;0.30;;;10.70;56.40;;;;;;4968927;28;20391;-88
2023/01/28 07:08:53;;;;;;;0.30;0.30;;;10.80;56.20;;;;;;4969526;28;20039;-85
2023/01/28 07:11:19;;;;;;;0.30;0.30;;;10.80;56.40;;;;;;4952536;28;20039;-87
2023/01/28 07:13:48;;;;;;;0.30;0.30;;;10.80;56.20;;;;;;4969170;28;20046;-89
2023/01/28 07:16:14;;;;;;;0.30;0.30;;;10.90;56.50;;;;;;4968927;28;20077;-86
2023/01/28 07:18:39;;;;;;;0.30;0.30;;;11.00;55.90;;;;;;4968948;28;20444;-88
2023/01/28 07:21:05;;;;;;;0.30;0.30;;;10.80;56.40;;;;;;4968135;28;20039;-87
2023/01/28 07:23:31;;;;;;;0.30;0.30;;;10.70;56.60;;;;;;4968869;28;20062;-86
2023/01/28 07:26:01;;;;;;;0.30;0.30;;;10.70;56.70;;;;;;4969149;28;20035;-87
2023/01/28 07:28:26;;;;;;;0.40;0.40;;;10.60;57.10;;;;;;5007017;28;20045;-85
2023/01/28 07:30:52;;;;;;;0.38;0.38;;;10.60;56.90;;;;;;4992176;28;20385;-86
2023/01/28 07:33:18;;;;;;;0.30;0.30;;;10.40;57.30;;;;;;4992640;28;20125;-85
2023/01/28 07:35:44;;;;;;;0.30;0.30;;;10.50;57.40;;;;;;4982100;28;20041;-87
2023/01/28 07:38:11;;;;;;;0.28;0.28;;;10.40;57.30;;;;;;4978869;28;20038;-86
2023/01/28 07:40:41;;;;;;;0.30;0.30;;;10.60;56.90;;;;;;5005629;28;20037;-85
2023/01/28 07:43:07;;;;;;;0.32;0.32;;;10.70;56.90;;;;;;4998236;28;20061;-85
2023/01/28 07:45:33;;;;;;;0.30;0.30;;;10.80;56.60;;;;;;5009154;28;20097;-85
2023/01/28 07:48:06;;;;;;;0.30;0.30;;;10.70;56.40;;;;;;5049964;28;20038;-85
2023/01/28 07:50:34;;;;;;;0.30;0.30;;;10.60;56.90;;;;;;5052667;28;20099;-87
2023/01/28 07:53:03;;;;;;;0.30;0.30;;;10.70;56.70;;;;;;5046427;28;20028;-86
2023/01/28 07:55:29;;;;;;;0.30;0.30;;;10.90;56.30;;;;;;5041025;28;20029;-85
2023/01/28 07:57:57;;;;;;;0.30;0.30;;;10.90;56.80;;;;;;5039044;28;20032;-87
2023/01/28 08:00:24;;;;;;;0.30;0.30;;;10.70;56.80;;;;;;5038328;28;20029;-87
2023/01/28 08:02:55;;;;;;;0.22;0.22;;;10.70;57.00;;;;;;5054253;28;20035;-86
2023/01/28 08:05:21;;;;;;;0.30;0.30;;;10.80;56.70;;;;;;5057711;28;20024;-83
2023/01/28 08:07:48;;;;;;;0.30;0.30;;;10.80;56.40;;;;;;5054437;28;20021;-87
2023/01/28 08:10:18;;;;;;;0.30;0.30;;;10.90;56.80;;;;;;5054614;28;20029;-83
2023/01/28 08:12:55;;;;;;;0.30;0.30;;;10.90;56.40;;;;;;5042920;28;20413;-82
2023/01/28 08:15:22;;;;;;;0.30;0.30;;;11.00;56.60;;;;;;5058051;28;20401;-86
2023/01/28 08:17:47;;;;;;;0.30;0.30;;;11.00;56.70;;;;;;5057849;28;20383;-86
2023/01/28 08:20:14;;;;;;;0.28;0.28;;;11.00;56.50;;;;;;5052144;28;20041;-85
2023/01/28 08:22:39;;;;;;;0.25;0.25;;;10.90;56.50;;;;;;5053198;28;20063;-86
2023/01/28 08:25:05;;;;;;;0.30;0.30;;;10.70;57.30;;;;;;5058899;28;20112;-86
2023/01/28 08:27:31;;;;;;;0.20;0.20;;;10.70;57.40;;;;;;5057651;28;20664;-85
2023/01/28 08:29:57;;;;;;;0.30;0.30;;;10.80;57.60;;;;;;5057322;28;20020;-87
2023/01/28 08:33:54;;;;;;;0.30;0.30;;;11.20;56.10;;;;;;5103718;27;20426;-86
2023/01/28 08:36:20;;;;;;;0.30;0.30;;;11.30;56.10;;;;;;5087122;28;20037;-84
2023/01/28 08:38:46;;;;;;;0.30;0.30;;;11.40;56.20;;;;;;5089976;28;20378;-84
2023/01/28 08:41:11;;;;;;;0.20;0.20;;;11.30;56.20;;;;;;5106932;28;20030;-85
2023/01/28 08:43:37;;;;;;;0.30;0.30;;;11.30;56.30;;;;;;5090464;28;20031;-84
2023/01/28 08:46:06;;;;;;;0.30;0.30;;;11.40;56.10;;;;;;5071831;28;20541;-86
2023/01/28 08:48:31;;;;;;;0.30;0.30;;;11.50;55.80;;;;;;5090266;28;20020;-83
2023/01/28 08:50:58;;;;;;;0.30;0.30;;;11.80;55.20;;;;;;5090436;28;20036;-84
2023/01/28 08:53:24;;;;;;;0.30;0.30;;;11.70;55.50;;;;;;5090152;28;20086;-86
2023/01/28 08:55:50;;;;;;;0.28;0.28;;;11.80;55.30;;;;;;4738282;28;9999676;-83
2023/01/28 08:58:17;;;;;;;0.40;0.40;;;11.80;55.20;;;;;;4378173;28;10000719;-85
2023/01/28 09:00:44;;;;;;;0.30;0.30;;;11.70;55.80;;;;;;5082378;28;20051;-87
2023/01/28 09:03:10;;;;;;;0.30;0.30;;;11.70;55.80;;;;;;5083493;28;20120;-87
2023/01/28 09:05:41;;;;;;;0.25;0.25;;;11.90;55.60;;;;;;5087743;28;20541;-86
2023/01/28 09:08:12;;;;;;;0.30;0.30;;;12.10;55.00;;;;;;5075346;28;20115;-85
2023/01/28 09:10:40;;;;;;;0.30;0.30;;;12.20;54.80;;;;;;5079896;28;20029;-86
2023/01/28 09:13:13;;;;;;;0.40;0.40;;;12.40;54.30;;;;;;5073499;28;20147;-84
2023/01/28 09:15:40;;;;;;;0.30;0.30;;;12.60;53.90;;;;;;5095656;28;20013;-85
2023/01/28 09:18:06;;;;;;;0.30;0.30;;;12.70;54.00;;;;;;5081124;28;20127;-86
2023/01/28 09:20:35;;;;;;;0.20;0.20;;;12.70;54.20;;;;;;5075363;28;20059;-84
2023/01/28 09:23:01;;;;;;;0.20;0.20;;;12.70;53.50;;;;;;5074442;28;20056;-85
2023/01/28 09:25:27;;;;;;;0.30;0.30;;;12.40;53.90;;;;;;5083493;28;20063;-87
2023/01/28 09:27:53;;;;;;;0.30;0.30;;;12.40;54.50;;;;;;5076088;28;20051;-86
2023/01/28 09:30:18;;;;;;;0.30;0.30;;;12.40;53.80;;;;;;5091203;28;20028;-85
2023/01/28 09:32:44;;;;;;;0.30;0.30;;;12.70;54.00;;;;;;5067837;28;20461;-87
2023/01/28 09:35:10;;;;;;;0.30;0.30;;;12.80;53.30;;;;;;5081028;28;20690;-83
2023/01/28 09:37:36;;;;;;;0.30;0.30;;;12.80;53.20;;;;;;5066849;28;20033;-87
2023/01/28 09:40:03;;;;;;;0.30;0.30;;;12.80;53.60;;;;;;5077185;28;20382;-86
2023/01/28 09:42:45;;;;;;;0.20;0.20;;;12.70;53.60;;;;;;5081611;28;20022;-85
2023/01/28 09:45:22;;;;;;;0.25;0.25;;;12.50;53.50;;;;;;4707889;28;9999912;-83
2023/01/28 09:47:54;;;;;;;0.40;0.40;;;11.80;54.70;;;;;;5056594;28;20024;-86
2023/01/28 09:50:34;;;;;;;0.30;0.30;;;11.60;55.30;;;;;;5055932;28;20032;-85
2023/01/28 09:53:09;;;;;;;0.33;0.33;;;11.50;55.90;;;;;;5055333;28;20440;-84
2023/01/28 09:55:45;;;;;;;0.30;0.30;;;11.70;55.60;;;;;;5059989;28;20282;-85
2023/01/28 09:58:14;;;;;;;0.20;0.20;;;12.00;54.90;;;;;;5075184;28;20024;-84
2023/01/28 10:00:57;;;;;;;0.30;0.30;;;12.20;54.90;;;;;;5075169;28;20028;-84
2023/01/28 10:03:47;;;;;;;0.30;0.30;;;12.50;54.30;;;;;;5077198;28;20020;-84
2023/01/28 10:06:28;;;;;;;0.30;0.30;;;12.40;54.90;;;;;;5074905;28;20067;-86
2023/01/28 10:09:17;;;;;;;0.30;0.30;;;12.20;54.60;;;;;;5075173;28;20033;-85
2023/01/28 10:12:14;;;;;;;0.30;0.30;;;12.20;54.20;;;;;;5056317;28;20464;-85
2023/01/28 10:14:45;;;;;;;0.30;0.30;;;12.00;54.50;;;;;;5067525;28;20063;-86
2023/01/28 10:17:31;;;;;;;0.22;0.22;;;12.00;54.90;;;;;;5073422;28;20028;-85
2023/01/28 10:20:06;;;;;;;0.30;0.30;;;12.10;54.80;;;;;;5068530;28;20027;-83
2023/01/28 10:22:57;;;;;;;0.30;0.30;;;12.50;54.30;;;;;;5074312;28;20763;-85
2023/01/28 10:25:30;;;;;;;0.28;0.28;;;12.50;54.00;;;;;;5051719;28;20068;-87
2023/01/28 10:27:56;;;;;;;0.30;0.30;;;12.00;54.90;;;;;;5054804;28;20032;-84
2023/01/28 10:30:30;;;;;;;0.20;0.20;;;11.90;54.90;;;;;;5054524;28;20427;-87
2023/01/28 10:33:02;;;;;;;0.30;0.30;;;11.40;55.50;;;;;;5064426;28;20059;-84
2023/01/28 10:35:34;;;;;;;0.30;0.30;;;11.60;56.20;;;;;;5064255;28;20033;-86
2023/01/28 10:38:06;;;;;;;0.30;0.30;;;11.90;55.50;;;;;;5054230;28;20175;-84
2023/01/28 10:40:33;;;;;;;0.30;0.30;;;11.80;55.20;;;;;;5062047;28;20117;-84
2023/01/28 10:42:59;;;;;;;0.30;0.30;;;11.50;55.70;;;;;;5073442;28;20016;-88
2023/01/28 10:45:29;;;;;;;0.20;0.20;;;11.50;56.20;;;;;;5074298;28;20478;-85
2023/01/28 10:48:06;;;;;;;0.22;0.22;;;11.50;55.80;;;;;;5061151;28;20048;-86
2023/01/28 10:50:34;;;;;;;0.20;0.20;;;11.50;55.70;;;;;;5077548;28;20020;-85
2023/01/28 10:53:04;;;;;;;0.30;0.30;;;11.50;56.70;;;;;;5073648;28;20036;-86
2023/01/28 10:55:43;;;;;;;0.30;0.30;;;11.70;55.50;;;;;;5052745;28;20104;-86
2023/01/28 10:58:18;;;;;;;0.32;0.32;;;11.80;56.20;;;;;;5054139;28;20029;-86
2023/01/28 11:00:44;;;;;;;0.40;0.40;;;12.00;55.50;;;;;;5063380;28;20029;-87
2023/01/28 11:03:18;;;;;;;0.20;0.20;;;12.00;54.70;;;;;;5063202;28;20035;-87
2023/01/28 11:05:51;;;;;;;0.20;0.20;;;12.20;55.20;;;;;;5071469;28;20465;-85
2023/01/28 11:08:18;;;;;;;0.35;0.35;;;12.40;54.10;;;;;;5074243;28;20020;-85
2023/01/28 11:10:44;;;;;;;0.32;0.32;;;12.10;54.30;;;;;;5074069;28;20032;-86
2023/01/28 11:13:29;;;;;;;0.20;0.20;;;11.90;55.20;;;;;;5078428;28;20173;-87
2023/01/28 11:16:01;;;;;;;0.28;0.28;;;11.80;54.80;;;;;;5054981;28;20029;-85
2023/01/28 11:18:38;;;;;;;0.28;0.28;;;11.60;55.50;;;;;;5070481;28;20041;-87
2023/01/28 11:21:13;;;;;;;0.30;0.30;;;11.50;55.40;;;;;;5053492;28;20024;-86
2023/01/28 11:23:59;;;;;;;0.20;0.20;;;11.80;55.50;;;;;;5064272;28;20020;-86
2023/01/28 11:28:20;;;;;;;0.20;0.20;;;11.90;54.80;;;;;;5082408;27;21763;-87
2023/01/28 11:30:51;;;;;;;0.30;0.30;;;12.00;55.40;;;;;;5089274;28;20028;-85
2023/01/28 11:33:25;;;;;;;0.30;0.30;;;11.80;54.70;;;;;;5090003;28;20493;-86
2023/01/28 11:36:06;;;;;;;0.20;0.20;;;12.00;55.50;;;;;;5085573;28;20025;-84
2023/01/28 11:38:33;;;;;;;0.30;0.30;;;12.10;55.00;;;;;;5075244;28;20501;-84
2023/01/28 11:41:02;;;;;;;0.30;0.30;;;12.00;55.10;;;;;;5069913;28;20095;-84
2023/01/28 11:43:31;;;;;;;0.30;0.30;;;12.20;54.70;;;;;;4798716;28;10000935;-84
2023/01/28 11:46:11;;;;;;;0.20;0.20;;;12.10;54.80;;;;;;5091007;28;20741;-86
2023/01/28 11:49:08;;;;;;;0.20;0.20;;;12.20;55.10;;;;;;5069661;28;20028;-86
2023/01/28 11:52:05;;;;;;;0.20;0.20;;;12.60;54.40;;;;;;5069604;28;20020;-86
2023/01/28 11:54:40;;;;;;;0.30;0.30;;;12.60;54.00;;;;;;5069310;28;20128;-86
2023/01/28 11:57:15;;;;;;;0.35;0.35;;;12.80;54.20;;;;;;5086660;28;20021;-87
2023/01/28 12:00:09;;;;;;;0.25;0.25;;;12.80;53.30;;;;;;5068610;28;20047;-87
2023/01/28 12:03:10;;;;;;;0.30;0.30;;;12.50;54.20;;;;;;5053259;28;20079;-87
2023/01/28 12:05:52;;;;;;;0.30;0.30;;;12.50;54.30;;;;;;5028239;28;20034;-85
2023/01/28 12:08:59;;;;;;;0.30;0.30;;;12.50;54.50;;;;;;5011866;28;20042;-85
2023/01/28 12:14:58;;;;;;;0.20;0.20;;;12.50;54.00;;;;;;5021725;28;20044;-86
2023/01/28 12:17:44;;;;;;;0.20;0.20;;;12.20;54.90;;;;;;5045024;28;20033;-89
2023/01/28 12:21:23;;;;;;;0.30;0.30;;;12.10;54.50;;;;;;5091998;28;20877;-84
2023/01/28 12:24:18;;;;;;;0.30;0.30;;;11.90;55.70;;;;;;5089862;28;20475;-84
2023/01/28 12:26:46;;;;;;;0.40;0.40;;;12.20;55.30;;;;;;5071651;28;20028;-85
2023/01/28 12:29:40;;;;;;;0.25;0.25;;;12.60;54.70;;;;;;5090187;28;20028;-85
2023/01/28 12:32:54;;;;;;;0.25;0.25;;;12.60;54.50;;;;;;5089810;28;20020;-85
2023/01/28 12:35:23;;;;;;;0.22;0.22;;;12.80;54.20;;;;;;5068512;28;20072;-84
2023/01/28 12:38:01;;;;;;;0.30;0.30;;;12.70;54.50;;;;;;5049524;28;20376;-83
2023/01/28 12:40:49;;;;;;;0.20;0.20;;;12.80;53.60;;;;;;5042362;28;20048;-83
2023/01/28 12:43:32;;;;;;;0.32;0.32;;;12.30;54.70;;;;;;5050899;28;20106;-83
2023/01/28 12:46:04;;;;;;;0.40;0.40;;;12.70;54.60;;;;;;5051219;28;20051;-85
2023/01/28 12:48:43;;;;;;;0.30;0.30;;;12.70;53.90;;;;;;5051460;28;20025;-84
2023/01/28 12:51:19;;;;;;;0.25;0.25;;;12.60;54.40;;;;;;5050908;28;20028;-85
2023/01/28 12:53:57;;;;;;;0.30;0.30;;;12.90;54.00;;;;;;5045936;28;20025;-84
2023/01/28 12:56:36;;;;;;;0.20;0.20;;;13.00;53.40;;;;;;5045925;28;20578;-87
2023/01/28 12:59:20;;;;;;;0.30;0.30;;;12.90;53.80;;;;;;5049945;28;20182;-85
2023/01/28 13:02:21;;;;;;;0.30;0.30;;;12.90;53.70;;;;;;5046971;28;20025;-86
2023/01/28 13:07:10;;;;;;;0.20;0.20;;;12.70;53.60;;;;;;5099265;27;1377832;-83
2023/01/28 13:09:42;;;;;;;0.30;0.30;;;12.60;53.60;;;;;;5085716;28;20036;-86
2023/01/28 13:12:10;;;;;;;0.30;0.30;;;12.30;54.30;;;;;;5108778;28;20489;-86
2023/01/28 13:14:36;;;;;;;0.28;0.28;;;11.90;54.40;;;;;;5093027;28;20027;-86
2023/01/28 13:17:10;;;;;;;0.30;0.30;;;11.50;55.90;;;;;;5104097;28;20032;-82
2023/01/28 13:19:39;;;;;;;0.20;0.20;;;10.80;56.40;;;;;;5093087;28;20114;-85
2023/01/28 13:22:24;;;;;;;0.30;0.30;;;9.80;59.00;;;;;;5086123;28;20039;-87
2023/01/28 13:24:50;;;;;;;0.30;0.30;;;9.90;59.30;;;;;;5093130;28;20031;-85
2023/01/28 13:27:22;;;;;;;0.30;0.30;;;10.20;58.60;;;;;;5110951;28;20502;-85
2023/01/28 13:29:59;;;;;;;0.20;0.20;;;10.40;58.60;;;;;;5093190;28;20073;-85
2023/01/28 13:32:34;;;;;;;0.30;0.30;;;11.10;57.20;;;;;;5093102;28;20028;-85
2023/01/28 13:35:06;;;;;;;0.20;0.20;;;11.60;56.30;;;;;;5110912;28;20031;-84
2023/01/28 13:37:39;;;;;;;0.30;0.30;;;11.80;55.90;;;;;;5111140;28;20020;-85
2023/01/28 13:42:21;;;;;;;0.20;0.20;;;12.50;54.30;;;;;;5067701;27;1440488;-83
2023/01/28 13:44:46;;;;;;;0.30;0.30;;;12.70;54.10;;;;;;5093592;28;20028;-84
2023/01/28 13:47:29;;;;;;;0.20;0.20;;;12.70;53.90;;;;;;5111696;28;20073;-84
2023/01/28 13:50:14;;;;;;;0.30;0.30;;;12.90;53.90;;;;;;5104520;28;20059;-83
2023/01/28 13:53:04;;;;;;;0.20;0.20;;;12.90;53.40;;;;;;5093514;28;20020;-84
2023/01/28 13:55:38;;;;;;;0.30;0.30;;;12.60;53.80;;;;;;5093483;28;20023;-83
2023/01/28 13:58:03;;;;;;;0.30;0.30;;;12.60;54.40;;;;;;5093771;28;20031;-83